sensor_id;sensor_type;location;lat;lon;timestamp;P1;durP1;ratioP1;P2;durP2;ratioP2
72060;SDS011;59925;52.136;5.420;2022-09-12T00:03:38;10.52;;;6.47;;
72060;SDS011;59925;52.136;5.420;2022-09-12T00:06:25;8.33;;;6.60;;
72060;SDS011;59925;52.136;5.420;2022-09-12T00:08:54;8.63;;;6.10;;
72060;SDS011;59925;52.136;5.420;2022-09-12T00:11:22;7.72;;;6.13;;
72060;SDS011;59925;52.136;5.420;2022-09-12T00:13:48;10.85;;;5.90;;
72060;SDS011;59925;52.136;5.420;2022-09-12T00:16:16;9.10;;;6.22;;
72060;SDS011;59925;52.136;5.420;2022-09-12T00:18:45;9.23;;;6.70;;
72060;SDS011;59925;52.136;5.420;2022-09-12T00:21:12;9.77;;;6.75;;
72060;SDS011;59925;52.136;5.420;2022-09-12T00:23:39;10.35;;;7.95;;
72060;SDS011;59925;52.136;5.420;2022-09-12T00:26:06;10.25;;;7.32;;
72060;SDS011;59925;52.136;5.420;2022-09-12T00:28:34;10.57;;;7.65;;
72060;SDS011;59925;52.136;5.420;2022-09-12T00:31:06;10.50;;;6.97;;
72060;SDS011;59925;52.136;5.420;2022-09-12T00:33:34;9.45;;;6.47;;
72060;SDS011;59925;52.136;5.420;2022-09-12T00:36:08;11.02;;;6.07;;
72060;SDS011;59925;52.136;5.420;2022-09-12T00:38:36;9.73;;;6.35;;
72060;SDS011;59925;52.136;5.420;2022-09-12T00:41:09;7.45;;;5.65;;
72060;SDS011;59925;52.136;5.420;2022-09-12T00:43:41;8.33;;;5.27;;
72060;SDS011;59925;52.136;5.420;2022-09-12T00:48:41;6.55;;;4.95;;
72060;SDS011;59925;52.136;5.420;2022-09-12T00:51:13;7.47;;;5.10;;
72060;SDS011;59925;52.136;5.420;2022-09-12T00:53:41;6.80;;;4.97;;
72060;SDS011;59925;52.136;5.420;2022-09-12T00:56:09;6.07;;;5.17;;
72060;SDS011;59925;52.136;5.420;2022-09-12T00:58:39;8.65;;;4.93;;
72060;SDS011;59925;52.136;5.420;2022-09-12T01:01:14;8.13;;;5.53;;
72060;SDS011;59925;52.136;5.420;2022-09-12T01:03:40;10.23;;;5.40;;
72060;SDS011;59925;52.136;5.420;2022-09-12T01:09:01;8.27;;;5.27;;
72060;SDS011;59925;52.136;5.420;2022-09-12T01:11:30;6.78;;;4.50;;
72060;SDS011;59925;52.136;5.420;2022-09-12T01:13:59;11.63;;;6.00;;
72060;SDS011;59925;52.136;5.420;2022-09-12T01:16:25;10.48;;;6.07;;
72060;SDS011;59925;52.136;5.420;2022-09-12T01:27:23;9.68;;;5.63;;
72060;SDS011;59925;52.136;5.420;2022-09-12T01:35:39;8.53;;;5.60;;
72060;SDS011;59925;52.136;5.420;2022-09-12T01:44:00;10.43;;;5.90;;
72060;SDS011;59925;52.136;5.420;2022-09-12T01:46:39;9.50;;;6.00;;
72060;SDS011;59925;52.136;5.420;2022-09-12T01:49:16;10.00;;;6.13;;
72060;SDS011;59925;52.136;5.420;2022-09-12T01:54:53;10.50;;;6.38;;
72060;SDS011;59925;52.136;5.420;2022-09-12T01:57:42;9.60;;;6.63;;
72060;SDS011;59925;52.136;5.420;2022-09-12T02:00:14;9.73;;;5.70;;
72060;SDS011;59925;52.136;5.420;2022-09-12T02:02:46;8.30;;;5.37;;
72060;SDS011;59925;52.136;5.420;2022-09-12T02:05:37;7.70;;;5.38;;
72060;SDS011;59925;52.136;5.420;2022-09-12T02:08:12;9.15;;;5.72;;
72060;SDS011;59925;52.136;5.420;2022-09-12T02:10:47;8.02;;;5.28;;
72060;SDS011;59925;52.136;5.420;2022-09-12T02:13:20;7.53;;;4.90;;
72060;SDS011;59925;52.136;5.420;2022-09-12T02:16:06;10.20;;;5.67;;
72060;SDS011;59925;52.136;5.420;2022-09-12T02:18:39;9.90;;;6.05;;
72060;SDS011;59925;52.136;5.420;2022-09-12T02:21:10;6.93;;;5.03;;
72060;SDS011;59925;52.136;5.420;2022-09-12T02:23:38;9.27;;;5.65;;
72060;SDS011;59925;52.136;5.420;2022-09-12T02:26:18;8.80;;;5.68;;
72060;SDS011;59925;52.136;5.420;2022-09-12T02:28:48;8.30;;;5.80;;
72060;SDS011;59925;52.136;5.420;2022-09-12T02:31:19;7.88;;;4.85;;
72060;SDS011;59925;52.136;5.420;2022-09-12T02:37:22;6.22;;;4.43;;
72060;SDS011;59925;52.136;5.420;2022-09-12T02:39:41;6.60;;;4.65;;
72060;SDS011;59925;52.136;5.420;2022-09-12T02:42:10;7.33;;;4.60;;
72060;SDS011;59925;52.136;5.420;2022-09-12T02:44:37;9.45;;;5.70;;
72060;SDS011;59925;52.136;5.420;2022-09-12T02:47:08;11.02;;;6.18;;
72060;SDS011;59925;52.136;5.420;2022-09-12T02:49:40;11.30;;;6.38;;
72060;SDS011;59925;52.136;5.420;2022-09-12T02:52:06;9.85;;;6.38;;
72060;SDS011;59925;52.136;5.420;2022-09-12T02:54:32;8.40;;;6.17;;
72060;SDS011;59925;52.136;5.420;2022-09-12T02:56:59;10.50;;;6.47;;
72060;SDS011;59925;52.136;5.420;2022-09-12T02:59:26;9.32;;;5.95;;
72060;SDS011;59925;52.136;5.420;2022-09-12T03:10:32;8.07;;;5.88;;
72060;SDS011;59925;52.136;5.420;2022-09-12T03:13:26;9.90;;;6.20;;
72060;SDS011;59925;52.136;5.420;2022-09-12T03:18:57;12.07;;;6.75;;
72060;SDS011;59925;52.136;5.420;2022-09-12T03:21:35;10.07;;;6.23;;
72060;SDS011;59925;52.136;5.420;2022-09-12T03:24:28;9.35;;;6.25;;
72060;SDS011;59925;52.136;5.420;2022-09-12T03:29:31;12.40;;;6.28;;
72060;SDS011;59925;52.136;5.420;2022-09-12T03:31:58;8.35;;;5.30;;
72060;SDS011;59925;52.136;5.420;2022-09-12T03:34:25;9.63;;;5.17;;
72060;SDS011;59925;52.136;5.420;2022-09-12T03:36:52;9.60;;;5.05;;
72060;SDS011;59925;52.136;5.420;2022-09-12T03:39:20;7.93;;;4.82;;
72060;SDS011;59925;52.136;5.420;2022-09-12T03:41:49;7.60;;;5.07;;
72060;SDS011;59925;52.136;5.420;2022-09-12T03:44:16;6.78;;;4.68;;
72060;SDS011;59925;52.136;5.420;2022-09-12T03:46:43;8.53;;;4.73;;
72060;SDS011;59925;52.136;5.420;2022-09-12T03:49:10;7.38;;;4.43;;
72060;SDS011;59925;52.136;5.420;2022-09-12T03:51:37;9.02;;;4.63;;
72060;SDS011;59925;52.136;5.420;2022-09-12T03:54:04;8.68;;;5.97;;
72060;SDS011;59925;52.136;5.420;2022-09-12T03:56:31;10.13;;;6.07;;
72060;SDS011;59925;52.136;5.420;2022-09-12T03:58:58;9.23;;;6.07;;
72060;SDS011;59925;52.136;5.420;2022-09-12T04:01:24;10.85;;;6.63;;
72060;SDS011;59925;52.136;5.420;2022-09-12T04:03:50;10.80;;;6.40;;
72060;SDS011;59925;52.136;5.420;2022-09-12T04:06:19;12.73;;;7.30;;
72060;SDS011;59925;52.136;5.420;2022-09-12T04:08:53;11.25;;;6.30;;
72060;SDS011;59925;52.136;5.420;2022-09-12T04:11:20;11.20;;;6.77;;
72060;SDS011;59925;52.136;5.420;2022-09-12T04:13:47;9.48;;;5.75;;
72060;SDS011;59925;52.136;5.420;2022-09-12T04:16:15;10.45;;;6.22;;
72060;SDS011;59925;52.136;5.420;2022-09-12T04:18:43;9.00;;;4.88;;
72060;SDS011;59925;52.136;5.420;2022-09-12T04:21:11;10.27;;;5.53;;
72060;SDS011;59925;52.136;5.420;2022-09-12T04:23:39;8.23;;;5.17;;
72060;SDS011;59925;52.136;5.420;2022-09-12T04:26:06;7.97;;;5.57;;
72060;SDS011;59925;52.136;5.420;2022-09-12T04:28:33;7.47;;;5.18;;
72060;SDS011;59925;52.136;5.420;2022-09-12T04:31:04;10.55;;;5.53;;
72060;SDS011;59925;52.136;5.420;2022-09-12T04:33:33;8.13;;;5.18;;
72060;SDS011;59925;52.136;5.420;2022-09-12T04:36:08;9.27;;;5.57;;
72060;SDS011;59925;52.136;5.420;2022-09-12T04:38:42;10.20;;;6.60;;
72060;SDS011;59925;52.136;5.420;2022-09-12T04:41:14;11.20;;;6.38;;
72060;SDS011;59925;52.136;5.420;2022-09-12T04:43:52;9.93;;;6.43;;
72060;SDS011;59925;52.136;5.420;2022-09-12T04:46:21;9.38;;;6.30;;
72060;SDS011;59925;52.136;5.420;2022-09-12T04:48:47;11.53;;;6.73;;
72060;SDS011;59925;52.136;5.420;2022-09-12T04:51:21;13.15;;;7.13;;
72060;SDS011;59925;52.136;5.420;2022-09-12T04:53:51;11.52;;;7.30;;
72060;SDS011;59925;52.136;5.420;2022-09-12T04:56:18;11.02;;;7.03;;
72060;SDS011;59925;52.136;5.420;2022-09-12T04:58:46;12.73;;;7.25;;
72060;SDS011;59925;52.136;5.420;2022-09-12T05:01:14;11.43;;;7.57;;
72060;SDS011;59925;52.136;5.420;2022-09-12T05:03:43;11.43;;;7.07;;
72060;SDS011;59925;52.136;5.420;2022-09-12T05:06:15;12.40;;;7.82;;
72060;SDS011;59925;52.136;5.420;2022-09-12T05:08:46;13.07;;;7.78;;
72060;SDS011;59925;52.136;5.420;2022-09-12T05:11:14;14.25;;;7.82;;
72060;SDS011;59925;52.136;5.420;2022-09-12T05:13:51;12.67;;;7.67;;
72060;SDS011;59925;52.136;5.420;2022-09-12T05:16:19;13.02;;;7.88;;
72060;SDS011;59925;52.136;5.420;2022-09-12T05:18:46;12.90;;;8.30;;
72060;SDS011;59925;52.136;5.420;2022-09-12T05:21:14;15.93;;;8.90;;
72060;SDS011;59925;52.136;5.420;2022-09-12T05:23:43;14.18;;;8.82;;
72060;SDS011;59925;52.136;5.420;2022-09-12T05:26:11;12.80;;;8.17;;
72060;SDS011;59925;52.136;5.420;2022-09-12T05:28:41;15.70;;;8.80;;
72060;SDS011;59925;52.136;5.420;2022-09-12T05:31:13;14.32;;;8.52;;
72060;SDS011;59925;52.136;5.420;2022-09-12T05:33:41;13.75;;;8.23;;
72060;SDS011;59925;52.136;5.420;2022-09-12T05:36:10;13.75;;;8.50;;
72060;SDS011;59925;52.136;5.420;2022-09-12T05:38:38;17.33;;;9.73;;
72060;SDS011;59925;52.136;5.420;2022-09-12T05:41:09;15.25;;;9.85;;
72060;SDS011;59925;52.136;5.420;2022-09-12T05:43:44;15.35;;;9.63;;
72060;SDS011;59925;52.136;5.420;2022-09-12T05:46:12;16.13;;;9.40;;
72060;SDS011;59925;52.136;5.420;2022-09-12T05:48:41;15.35;;;8.48;;
72060;SDS011;59925;52.136;5.420;2022-09-12T05:51:10;14.07;;;8.13;;
72060;SDS011;59925;52.136;5.420;2022-09-12T05:53:39;16.38;;;8.85;;
72060;SDS011;59925;52.136;5.420;2022-09-12T05:56:10;15.13;;;8.45;;
72060;SDS011;59925;52.136;5.420;2022-09-12T05:58:40;22.27;;;11.93;;
72060;SDS011;59925;52.136;5.420;2022-09-12T06:01:12;17.60;;;9.32;;
72060;SDS011;59925;52.136;5.420;2022-09-12T06:03:42;16.40;;;8.53;;
72060;SDS011;59925;52.136;5.420;2022-09-12T06:06:10;16.50;;;8.98;;
72060;SDS011;59925;52.136;5.420;2022-09-12T06:08:41;17.85;;;9.57;;
72060;SDS011;59925;52.136;5.420;2022-09-12T06:11:10;15.35;;;9.10;;
72060;SDS011;59925;52.136;5.420;2022-09-12T06:13:39;21.42;;;11.50;;
72060;SDS011;59925;52.136;5.420;2022-09-12T06:16:11;20.73;;;12.43;;
72060;SDS011;59925;52.136;5.420;2022-09-12T06:18:39;17.85;;;10.63;;
72060;SDS011;59925;52.136;5.420;2022-09-12T06:21:07;16.15;;;10.00;;
72060;SDS011;59925;52.136;5.420;2022-09-12T06:23:35;16.25;;;9.65;;
72060;SDS011;59925;52.136;5.420;2022-09-12T06:26:03;15.98;;;9.10;;
72060;SDS011;59925;52.136;5.420;2022-09-12T06:28:31;18.37;;;9.87;;
72060;SDS011;59925;52.136;5.420;2022-09-12T06:31:03;20.23;;;10.75;;
72060;SDS011;59925;52.136;5.420;2022-09-12T06:33:35;19.30;;;10.35;;
72060;SDS011;59925;52.136;5.420;2022-09-12T06:36:03;18.58;;;10.35;;
72060;SDS011;59925;52.136;5.420;2022-09-12T06:38:37;20.00;;;10.85;;
72060;SDS011;59925;52.136;5.420;2022-09-12T06:41:05;18.73;;;10.27;;
72060;SDS011;59925;52.136;5.420;2022-09-12T06:43:33;20.65;;;12.32;;
72060;SDS011;59925;52.136;5.420;2022-09-12T06:46:00;21.30;;;12.55;;
72060;SDS011;59925;52.136;5.420;2022-09-12T06:48:27;34.25;;;16.45;;
72060;SDS011;59925;52.136;5.420;2022-09-12T06:50:58;33.60;;;17.35;;
72060;SDS011;59925;52.136;5.420;2022-09-12T06:53:48;31.97;;;16.03;;
72060;SDS011;59925;52.136;5.420;2022-09-12T06:56:18;39.38;;;20.67;;
72060;SDS011;59925;52.136;5.420;2022-09-12T06:58:46;37.25;;;19.23;;
72060;SDS011;59925;52.136;5.420;2022-09-12T07:03:42;35.15;;;19.55;;
72060;SDS011;59925;52.136;5.420;2022-09-12T07:06:13;42.27;;;19.90;;
72060;SDS011;59925;52.136;5.420;2022-09-12T07:08:42;43.90;;;21.02;;
72060;SDS011;59925;52.136;5.420;2022-09-12T07:13:38;40.63;;;21.33;;
72060;SDS011;59925;52.136;5.420;2022-09-12T07:16:06;41.92;;;21.45;;
72060;SDS011;59925;52.136;5.420;2022-09-12T07:18:33;41.40;;;21.27;;
72060;SDS011;59925;52.136;5.420;2022-09-12T07:21:01;39.53;;;20.70;;
72060;SDS011;59925;52.136;5.420;2022-09-12T07:23:28;40.35;;;21.58;;
72060;SDS011;59925;52.136;5.420;2022-09-12T07:25:55;36.47;;;20.15;;
72060;SDS011;59925;52.136;5.420;2022-09-12T07:28:24;43.40;;;20.92;;
72060;SDS011;59925;52.136;5.420;2022-09-12T07:30:52;37.47;;;21.17;;
72060;SDS011;59925;52.136;5.420;2022-09-12T07:33:19;43.72;;;22.20;;
72060;SDS011;59925;52.136;5.420;2022-09-12T07:35:47;41.20;;;20.98;;
72060;SDS011;59925;52.136;5.420;2022-09-12T07:38:13;36.03;;;19.67;;
72060;SDS011;59925;52.136;5.420;2022-09-12T07:40:41;39.00;;;20.83;;
72060;SDS011;59925;52.136;5.420;2022-09-12T07:43:08;39.27;;;20.90;;
72060;SDS011;59925;52.136;5.420;2022-09-12T07:45:34;40.83;;;21.15;;
72060;SDS011;59925;52.136;5.420;2022-09-12T07:48:01;39.25;;;21.02;;
72060;SDS011;59925;52.136;5.420;2022-09-12T07:50:28;37.08;;;21.27;;
72060;SDS011;59925;52.136;5.420;2022-09-12T07:52:54;37.35;;;20.90;;
72060;SDS011;59925;52.136;5.420;2022-09-12T07:55:20;35.80;;;21.17;;
72060;SDS011;59925;52.136;5.420;2022-09-12T07:57:50;37.55;;;19.33;;
72060;SDS011;59925;52.136;5.420;2022-09-12T08:00:17;36.72;;;19.60;;
72060;SDS011;59925;52.136;5.420;2022-09-12T08:02:44;31.40;;;18.85;;
72060;SDS011;59925;52.136;5.420;2022-09-12T08:05:10;33.58;;;19.25;;
72060;SDS011;59925;52.136;5.420;2022-09-12T08:07:37;33.27;;;19.50;;
72060;SDS011;59925;52.136;5.420;2022-09-12T08:10:03;38.40;;;20.88;;
72060;SDS011;59925;52.136;5.420;2022-09-12T08:12:31;37.10;;;20.48;;
72060;SDS011;59925;52.136;5.420;2022-09-12T08:14:59;36.05;;;19.60;;
72060;SDS011;59925;52.136;5.420;2022-09-12T08:17:25;33.17;;;20.33;;
72060;SDS011;59925;52.136;5.420;2022-09-12T08:19:52;30.70;;;19.27;;
72060;SDS011;59925;52.136;5.420;2022-09-12T08:22:18;34.28;;;18.58;;
72060;SDS011;59925;52.136;5.420;2022-09-12T08:24:47;33.15;;;19.08;;
72060;SDS011;59925;52.136;5.420;2022-09-12T08:27:14;32.42;;;17.73;;
72060;SDS011;59925;52.136;5.420;2022-09-12T08:29:41;30.15;;;18.35;;
72060;SDS011;59925;52.136;5.420;2022-09-12T08:32:07;29.47;;;17.83;;
72060;SDS011;59925;52.136;5.420;2022-09-12T08:34:34;28.85;;;18.02;;
72060;SDS011;59925;52.136;5.420;2022-09-12T08:37:00;26.63;;;16.98;;
72060;SDS011;59925;52.136;5.420;2022-09-12T08:39:26;25.73;;;16.95;;
72060;SDS011;59925;52.136;5.420;2022-09-12T08:44:54;28.37;;;15.70;;
72060;SDS011;59925;52.136;5.420;2022-09-12T08:47:40;25.67;;;15.68;;
72060;SDS011;59925;52.136;5.420;2022-09-12T08:52:55;23.05;;;14.65;;
72060;SDS011;59925;52.136;5.420;2022-09-12T08:58:17;22.60;;;15.53;;
72060;SDS011;59925;52.136;5.420;2022-09-12T09:00:48;24.42;;;14.57;;
72060;SDS011;59925;52.136;5.420;2022-09-12T09:03:38;24.17;;;14.55;;
72060;SDS011;59925;52.136;5.420;2022-09-12T09:06:18;23.42;;;15.60;;
72060;SDS011;59925;52.136;5.420;2022-09-12T09:09:03;22.92;;;14.05;;
72060;SDS011;59925;52.136;5.420;2022-09-12T09:17:18;23.13;;;14.30;;
72060;SDS011;59925;52.136;5.420;2022-09-12T09:19:47;21.30;;;14.45;;
72060;SDS011;59925;52.136;5.420;2022-09-12T09:27:55;22.35;;;14.20;;
72060;SDS011;59925;52.136;5.420;2022-09-12T09:30:26;20.73;;;13.45;;
72060;SDS011;59925;52.136;5.420;2022-09-12T09:32:54;19.80;;;13.30;;
72060;SDS011;59925;52.136;5.420;2022-09-12T09:38:17;16.80;;;12.30;;
72060;SDS011;59925;52.136;5.420;2022-09-12T09:40:57;19.23;;;12.93;;
72060;SDS011;59925;52.136;5.420;2022-09-12T09:43:45;18.80;;;11.75;;
72060;SDS011;59925;52.136;5.420;2022-09-12T09:46:12;18.38;;;12.68;;
72060;SDS011;59925;52.136;5.420;2022-09-12T09:48:40;19.80;;;13.45;;
72060;SDS011;59925;52.136;5.420;2022-09-12T09:51:10;18.43;;;12.53;;
72060;SDS011;59925;52.136;5.420;2022-09-12T09:53:57;21.95;;;12.93;;
72060;SDS011;59925;52.136;5.420;2022-09-12T09:56:32;17.58;;;12.55;;
72060;SDS011;59925;52.136;5.420;2022-09-12T09:59:09;19.90;;;13.70;;
72060;SDS011;59925;52.136;5.420;2022-09-12T10:02:00;22.08;;;13.77;;
72060;SDS011;59925;52.136;5.420;2022-09-12T10:04:53;19.13;;;13.27;;
72060;SDS011;59925;52.136;5.420;2022-09-12T10:07:23;19.27;;;12.40;;
72060;SDS011;59925;52.136;5.420;2022-09-12T10:12:40;19.55;;;12.13;;
72060;SDS011;59925;52.136;5.420;2022-09-12T10:15:21;16.35;;;12.00;;
72060;SDS011;59925;52.136;5.420;2022-09-12T10:17:51;16.87;;;12.77;;
72060;SDS011;59925;52.136;5.420;2022-09-12T10:20:31;17.58;;;12.90;;
72060;SDS011;59925;52.136;5.420;2022-09-12T10:22:59;17.77;;;12.40;;
72060;SDS011;59925;52.136;5.420;2022-09-12T10:25:46;18.95;;;12.30;;
72060;SDS011;59925;52.136;5.420;2022-09-12T10:28:22;18.17;;;12.32;;
72060;SDS011;59925;52.136;5.420;2022-09-12T10:30:54;17.30;;;12.03;;
72060;SDS011;59925;52.136;5.420;2022-09-12T10:33:22;15.88;;;12.15;;
72060;SDS011;59925;52.136;5.420;2022-09-12T10:35:51;13.52;;;10.63;;
72060;SDS011;59925;52.136;5.420;2022-09-12T10:38:24;14.18;;;9.70;;
72060;SDS011;59925;52.136;5.420;2022-09-12T10:40:54;15.38;;;10.48;;
72060;SDS011;59925;52.136;5.420;2022-09-12T10:45:50;16.20;;;11.30;;
72060;SDS011;59925;52.136;5.420;2022-09-12T10:50:53;16.67;;;10.40;;
72060;SDS011;59925;52.136;5.420;2022-09-12T10:55:52;12.77;;;8.60;;
72060;SDS011;59925;52.136;5.420;2022-09-12T11:04:16;10.68;;;7.78;;
72060;SDS011;59925;52.136;5.420;2022-09-12T11:21:41;10.80;;;6.18;;
72060;SDS011;59925;52.136;5.420;2022-09-12T11:27:31;7.40;;;5.70;;
72060;SDS011;59925;52.136;5.420;2022-09-12T11:30:08;8.15;;;6.03;;
72060;SDS011;59925;52.136;5.420;2022-09-12T11:35:44;7.15;;;5.82;;
72060;SDS011;59925;52.136;5.420;2022-09-12T11:38:27;6.77;;;5.00;;
72060;SDS011;59925;52.136;5.420;2022-09-12T11:41:20;7.28;;;5.18;;
72060;SDS011;59925;52.136;5.420;2022-09-12T11:44:00;8.10;;;5.05;;
72060;SDS011;59925;52.136;5.420;2022-09-12T11:46:36;5.60;;;4.53;;
72060;SDS011;59925;52.136;5.420;2022-09-12T11:49:06;6.97;;;4.70;;
72060;SDS011;59925;52.136;5.420;2022-09-12T11:52:24;6.73;;;4.73;;
72060;SDS011;59925;52.136;5.420;2022-09-12T11:54:41;7.32;;;4.50;;
72060;SDS011;59925;52.136;5.420;2022-09-12T11:59:58;7.65;;;5.35;;
72060;SDS011;59925;52.136;5.420;2022-09-12T12:02:28;5.70;;;4.63;;
72060;SDS011;59925;52.136;5.420;2022-09-12T12:05:08;6.47;;;4.27;;
72060;SDS011;59925;52.136;5.420;2022-09-12T12:07:50;6.13;;;4.35;;
72060;SDS011;59925;52.136;5.420;2022-09-12T12:10:31;5.72;;;4.03;;
72060;SDS011;59925;52.136;5.420;2022-09-12T12:13:03;7.50;;;4.35;;
72060;SDS011;59925;52.136;5.420;2022-09-12T12:15:39;5.03;;;3.88;;
72060;SDS011;59925;52.136;5.420;2022-09-12T12:18:17;5.30;;;4.00;;
72060;SDS011;59925;52.136;5.420;2022-09-12T12:20:48;5.05;;;3.83;;
72060;SDS011;59925;52.136;5.420;2022-09-12T12:23:23;7.85;;;4.18;;
72060;SDS011;59925;52.136;5.420;2022-09-12T12:26:00;5.47;;;3.55;;
72060;SDS011;59925;52.136;5.420;2022-09-12T12:31:06;5.90;;;3.30;;
72060;SDS011;59925;52.136;5.420;2022-09-12T12:36:07;5.15;;;3.38;;
72060;SDS011;59925;52.136;5.420;2022-09-12T12:38:36;5.00;;;3.67;;
72060;SDS011;59925;52.136;5.420;2022-09-12T12:43:45;4.40;;;3.50;;
72060;SDS011;59925;52.136;5.420;2022-09-12T12:46:13;5.35;;;3.30;;
72060;SDS011;59925;52.136;5.420;2022-09-12T12:49:04;4.28;;;3.20;;
72060;SDS011;59925;52.136;5.420;2022-09-12T12:51:55;5.13;;;3.88;;
72060;SDS011;59925;52.136;5.420;2022-09-12T12:57:00;4.70;;;3.53;;
72060;SDS011;59925;52.136;5.420;2022-09-12T12:59:29;7.53;;;3.40;;
72060;SDS011;59925;52.136;5.420;2022-09-12T13:01:56;5.70;;;3.25;;
72060;SDS011;59925;52.136;5.420;2022-09-12T13:04:26;4.80;;;3.67;;
72060;SDS011;59925;52.136;5.420;2022-09-12T13:18:17;4.85;;;3.28;;
72060;SDS011;59925;52.136;5.420;2022-09-12T13:20:50;4.22;;;3.20;;
72060;SDS011;59925;52.136;5.420;2022-09-12T13:23:22;5.20;;;3.50;;
72060;SDS011;59925;52.136;5.420;2022-09-12T13:25:51;6.65;;;3.10;;
72060;SDS011;59925;52.136;5.420;2022-09-12T13:28:19;7.00;;;3.47;;
72060;SDS011;59925;52.136;5.420;2022-09-12T13:30:47;4.68;;;3.10;;
72060;SDS011;59925;52.136;5.420;2022-09-12T13:39:20;6.90;;;3.65;;
72060;SDS011;59925;52.136;5.420;2022-09-12T13:41:50;5.05;;;3.45;;
72060;SDS011;59925;52.136;5.420;2022-09-12T13:44:25;4.60;;;3.10;;
72060;SDS011;59925;52.136;5.420;2022-09-12T13:46:53;3.70;;;2.95;;
72060;SDS011;59925;52.136;5.420;2022-09-12T13:49:34;3.63;;;2.90;;
72060;SDS011;59925;52.136;5.420;2022-09-12T13:52:03;6.40;;;2.97;;
72060;SDS011;59925;52.136;5.420;2022-09-12T13:54:34;3.45;;;2.83;;
72060;SDS011;59925;52.136;5.420;2022-09-12T13:57:04;5.07;;;2.80;;
72060;SDS011;59925;52.136;5.420;2022-09-12T13:59:40;4.32;;;3.10;;
72060;SDS011;59925;52.136;5.420;2022-09-12T14:02:17;4.97;;;3.17;;
72060;SDS011;59925;52.136;5.420;2022-09-12T14:04:46;5.38;;;3.08;;
72060;SDS011;59925;52.136;5.420;2022-09-12T14:07:31;7.00;;;3.88;;
72060;SDS011;59925;52.136;5.420;2022-09-12T14:09:59;5.22;;;3.38;;
72060;SDS011;59925;52.136;5.420;2022-09-12T14:12:36;4.40;;;3.20;;
72060;SDS011;59925;52.136;5.420;2022-09-12T14:15:16;4.70;;;3.50;;
72060;SDS011;59925;52.136;5.420;2022-09-12T14:17:48;5.60;;;4.20;;
72060;SDS011;59925;52.136;5.420;2022-09-12T14:20:20;3.38;;;3.08;;
72060;SDS011;59925;52.136;5.420;2022-09-12T14:22:51;4.28;;;3.08;;
72060;SDS011;59925;52.136;5.420;2022-09-12T14:25:19;5.18;;;3.40;;
72060;SDS011;59925;52.136;5.420;2022-09-12T14:27:52;4.27;;;3.00;;
72060;SDS011;59925;52.136;5.420;2022-09-12T14:30:29;4.00;;;2.88;;
72060;SDS011;59925;52.136;5.420;2022-09-12T14:33:02;5.18;;;3.20;;
72060;SDS011;59925;52.136;5.420;2022-09-12T14:35:30;4.78;;;3.30;;
72060;SDS011;59925;52.136;5.420;2022-09-12T14:38:03;5.30;;;2.72;;
72060;SDS011;59925;52.136;5.420;2022-09-12T14:40:44;5.50;;;2.80;;
72060;SDS011;59925;52.136;5.420;2022-09-12T14:43:20;4.13;;;3.20;;
72060;SDS011;59925;52.136;5.420;2022-09-12T14:45:55;4.07;;;3.25;;
72060;SDS011;59925;52.136;5.420;2022-09-12T14:48:29;5.22;;;3.10;;
72060;SDS011;59925;52.136;5.420;2022-09-12T14:50:59;2.83;;;2.50;;
72060;SDS011;59925;52.136;5.420;2022-09-12T14:53:30;4.20;;;3.10;;
72060;SDS011;59925;52.136;5.420;2022-09-12T14:56:11;2.83;;;2.50;;
72060;SDS011;59925;52.136;5.420;2022-09-12T14:58:39;3.40;;;2.38;;
72060;SDS011;59925;52.136;5.420;2022-09-12T15:03:34;3.85;;;3.13;;
72060;SDS011;59925;52.136;5.420;2022-09-12T15:06:03;5.10;;;2.70;;
72060;SDS011;59925;52.136;5.420;2022-09-12T15:08:33;3.28;;;2.70;;
72060;SDS011;59925;52.136;5.420;2022-09-12T15:10:59;4.93;;;2.80;;
72060;SDS011;59925;52.136;5.420;2022-09-12T15:13:26;4.88;;;2.60;;
72060;SDS011;59925;52.136;5.420;2022-09-12T15:15:57;3.50;;;2.63;;
72060;SDS011;59925;52.136;5.420;2022-09-12T15:18:25;2.80;;;2.30;;
72060;SDS011;59925;52.136;5.420;2022-09-12T15:20:54;2.22;;;2.03;;
72060;SDS011;59925;52.136;5.420;2022-09-12T15:26:09;3.83;;;2.20;;
72060;SDS011;59925;52.136;5.420;2022-09-12T15:28:38;4.57;;;2.40;;
72060;SDS011;59925;52.136;5.420;2022-09-12T15:31:06;3.23;;;2.50;;
72060;SDS011;59925;52.136;5.420;2022-09-12T15:33:38;2.92;;;2.70;;
72060;SDS011;59925;52.136;5.420;2022-09-12T15:36:09;4.43;;;2.60;;
72060;SDS011;59925;52.136;5.420;2022-09-12T15:38:38;2.80;;;2.60;;
72060;SDS011;59925;52.136;5.420;2022-09-12T15:41:08;3.00;;;2.45;;
72060;SDS011;59925;52.136;5.420;2022-09-12T15:43:36;4.23;;;2.50;;
72060;SDS011;59925;52.136;5.420;2022-09-12T15:46:03;5.82;;;2.78;;
72060;SDS011;59925;52.136;5.420;2022-09-12T15:48:31;3.13;;;2.22;;
72060;SDS011;59925;52.136;5.420;2022-09-12T15:50:58;2.80;;;2.50;;
72060;SDS011;59925;52.136;5.420;2022-09-12T15:53:26;4.25;;;2.55;;
72060;SDS011;59925;52.136;5.420;2022-09-12T15:55:53;2.97;;;2.30;;
72060;SDS011;59925;52.136;5.420;2022-09-12T15:58:19;4.68;;;2.15;;
72060;SDS011;59925;52.136;5.420;2022-09-12T16:00:45;2.30;;;2.10;;
72060;SDS011;59925;52.136;5.420;2022-09-12T16:03:22;3.97;;;2.42;;
72060;SDS011;59925;52.136;5.420;2022-09-12T16:05:58;2.90;;;2.20;;
72060;SDS011;59925;52.136;5.420;2022-09-12T16:08:27;3.10;;;2.30;;
72060;SDS011;59925;52.136;5.420;2022-09-12T16:10:57;3.95;;;2.28;;
72060;SDS011;59925;52.136;5.420;2022-09-12T16:13:25;2.42;;;1.73;;
72060;SDS011;59925;52.136;5.420;2022-09-12T16:15:54;3.13;;;1.92;;
72060;SDS011;59925;52.136;5.420;2022-09-12T16:18:22;3.47;;;2.10;;
72060;SDS011;59925;52.136;5.420;2022-09-12T16:20:53;3.00;;;2.03;;
72060;SDS011;59925;52.136;5.420;2022-09-12T16:23:20;3.35;;;2.22;;
72060;SDS011;59925;52.136;5.420;2022-09-12T16:26:01;3.25;;;1.90;;
72060;SDS011;59925;52.136;5.420;2022-09-12T16:28:29;3.20;;;2.20;;
72060;SDS011;59925;52.136;5.420;2022-09-12T16:31:00;1.70;;;1.60;;
72060;SDS011;59925;52.136;5.420;2022-09-12T16:33:29;2.40;;;1.90;;
72060;SDS011;59925;52.136;5.420;2022-09-12T16:36:16;2.63;;;2.10;;
72060;SDS011;59925;52.136;5.420;2022-09-12T16:38:44;3.03;;;2.20;;
72060;SDS011;59925;52.136;5.420;2022-09-12T16:41:12;3.78;;;2.40;;
72060;SDS011;59925;52.136;5.420;2022-09-12T16:43:39;2.60;;;1.77;;
72060;SDS011;59925;52.136;5.420;2022-09-12T16:46:07;2.70;;;1.90;;
72060;SDS011;59925;52.136;5.420;2022-09-12T16:48:36;3.28;;;2.20;;
72060;SDS011;59925;52.136;5.420;2022-09-12T16:51:03;3.17;;;2.38;;
72060;SDS011;59925;52.136;5.420;2022-09-12T16:53:32;2.80;;;1.90;;
72060;SDS011;59925;52.136;5.420;2022-09-12T16:56:00;3.15;;;1.98;;
72060;SDS011;59925;52.136;5.420;2022-09-12T16:58:27;2.23;;;1.87;;
72060;SDS011;59925;52.136;5.420;2022-09-12T17:01:01;2.92;;;2.25;;
72060;SDS011;59925;52.136;5.420;2022-09-12T17:03:30;2.63;;;2.17;;
72060;SDS011;59925;52.136;5.420;2022-09-12T17:06:00;2.78;;;2.25;;
72060;SDS011;59925;52.136;5.420;2022-09-12T17:08:29;2.30;;;2.10;;
72060;SDS011;59925;52.136;5.420;2022-09-12T17:10:59;3.53;;;2.07;;
72060;SDS011;59925;52.136;5.420;2022-09-12T17:13:26;2.63;;;1.83;;
72060;SDS011;59925;52.136;5.420;2022-09-12T17:16:13;3.45;;;1.92;;
72060;SDS011;59925;52.136;5.420;2022-09-12T17:18:39;1.92;;;1.60;;
72060;SDS011;59925;52.136;5.420;2022-09-12T17:21:06;2.47;;;1.85;;
72060;SDS011;59925;52.136;5.420;2022-09-12T17:23:34;3.07;;;2.17;;
72060;SDS011;59925;52.136;5.420;2022-09-12T17:26:01;3.63;;;1.92;;
72060;SDS011;59925;52.136;5.420;2022-09-12T17:28:28;3.08;;;1.90;;
72060;SDS011;59925;52.136;5.420;2022-09-12T17:30:55;3.03;;;2.03;;